sensor_id;sensor_type;location;lat;lon;timestamp;P1;durP1;ratioP1;P2;durP2;ratioP2
13832;SDS011;6987;19.472;-99.276;2023-04-01T00:01:00;12.07;;;9.57;;
13832;SDS011;6987;19.472;-99.276;2023-04-01T00:03:29;11.43;;;10.23;;
13832;SDS011;6987;19.472;-99.276;2023-04-01T00:05:59;11.95;;;10.77;;
13832;SDS011;6987;19.472;-99.276;2023-04-01T00:08:28;10.90;;;9.65;;
13832;SDS011;6987;19.472;-99.276;2023-04-01T00:10:57;12.50;;;9.85;;
13832;SDS011;6987;19.472;-99.276;2023-04-01T00:13:26;13.73;;;10.43;;
13832;SDS011;6987;19.472;-99.276;2023-04-01T00:15:57;10.90;;;9.80;;
13832;SDS011;6987;19.472;-99.276;2023-04-01T00:18:27;14.07;;;10.07;;
13832;SDS011;6987;19.472;-99.276;2023-04-01T00:20:56;11.63;;;10.52;;
13832;SDS011;6987;19.472;-99.276;2023-04-01T00:23:25;12.30;;;10.02;;
13832;SDS011;6987;19.472;-99.276;2023-04-01T00:25:58;12.48;;;9.68;;
13832;SDS011;6987;19.472;-99.276;2023-04-01T00:28:27;10.05;;;9.00;;
13832;SDS011;6987;19.472;-99.276;2023-04-01T00:30:58;10.35;;;9.20;;
13832;SDS011;6987;19.472;-99.276;2023-04-01T00:33:32;10.50;;;9.40;;
13832;SDS011;6987;19.472;-99.276;2023-04-01T00:36:08;14.70;;;8.73;;
13832;SDS011;6987;19.472;-99.276;2023-04-01T00:38:37;9.23;;;8.48;;
13832;SDS011;6987;19.472;-99.276;2023-04-01T00:41:07;15.80;;;9.60;;
13832;SDS011;6987;19.472;-99.276;2023-04-01T00:43:39;10.45;;;9.43;;
13832;SDS011;6987;19.472;-99.276;2023-04-01T00:46:10;11.35;;;9.40;;
13832;SDS011;6987;19.472;-99.276;2023-04-01T00:48:40;11.30;;;9.27;;
13832;SDS011;6987;19.472;-99.276;2023-04-01T00:51:11;14.32;;;10.05;;
13832;SDS011;6987;19.472;-99.276;2023-04-01T00:53:43;13.45;;;10.30;;
13832;SDS011;6987;19.472;-99.276;2023-04-01T00:56:14;17.08;;;9.93;;
13832;SDS011;6987;19.472;-99.276;2023-04-01T00:58:45;14.93;;;9.90;;
13832;SDS011;6987;19.472;-99.276;2023-04-01T01:01:17;11.25;;;10.00;;
13832;SDS011;6987;19.472;-99.276;2023-04-01T01:03:47;18.00;;;11.65;;
13832;SDS011;6987;19.472;-99.276;2023-04-01T01:06:19;16.58;;;10.25;;
13832;SDS011;6987;19.472;-99.276;2023-04-01T01:09:03;15.40;;;10.55;;
13832;SDS011;6987;19.472;-99.276;2023-04-01T01:11:36;12.32;;;9.88;;
13832;SDS011;6987;19.472;-99.276;2023-04-01T01:14:08;10.57;;;8.50;;
13832;SDS011;6987;19.472;-99.276;2023-04-01T01:16:42;11.43;;;9.85;;
13832;SDS011;6987;19.472;-99.276;2023-04-01T01:19:18;10.52;;;6.95;;
13832;SDS011;6987;19.472;-99.276;2023-04-01T01:22:02;9.05;;;7.13;;
13832;SDS011;6987;19.472;-99.276;2023-04-01T01:24:50;7.35;;;6.65;;
13832;SDS011;6987;19.472;-99.276;2023-04-01T01:27:20;15.63;;;7.57;;
13832;SDS011;6987;19.472;-99.276;2023-04-01T01:32:50;7.38;;;6.57;;
13832;SDS011;6987;19.472;-99.276;2023-04-01T01:35:25;6.90;;;6.30;;
13832;SDS011;6987;19.472;-99.276;2023-04-01T01:37:55;9.65;;;6.90;;
13832;SDS011;6987;19.472;-99.276;2023-04-01T01:40:26;7.22;;;6.60;;
13832;SDS011;6987;19.472;-99.276;2023-04-01T01:42:56;7.15;;;6.55;;
13832;SDS011;6987;19.472;-99.276;2023-04-01T01:45:26;7.65;;;7.00;;
13832;SDS011;6987;19.472;-99.276;2023-04-01T01:47:56;17.67;;;7.05;;
13832;SDS011;6987;19.472;-99.276;2023-04-01T01:50:27;15.45;;;7.05;;
13832;SDS011;6987;19.472;-99.276;2023-04-01T01:53:00;21.77;;;11.98;;
13832;SDS011;6987;19.472;-99.276;2023-04-01T01:55:30;33.85;;;22.08;;
13832;SDS011;6987;19.472;-99.276;2023-04-01T01:58:00;146.10;;;92.82;;
13832;SDS011;6987;19.472;-99.276;2023-04-01T02:00:31;71.43;;;44.60;;
13832;SDS011;6987;19.472;-99.276;2023-04-01T02:03:01;79.30;;;50.25;;
13832;SDS011;6987;19.472;-99.276;2023-04-01T02:05:32;169.30;;;101.63;;
13832;SDS011;6987;19.472;-99.276;2023-04-01T02:08:02;55.03;;;33.70;;
13832;SDS011;6987;19.472;-99.276;2023-04-01T02:10:34;62.35;;;35.40;;
13832;SDS011;6987;19.472;-99.276;2023-04-01T02:13:05;34.08;;;25.00;;
13832;SDS011;6987;19.472;-99.276;2023-04-01T02:15:37;47.60;;;21.05;;
13832;SDS011;6987;19.472;-99.276;2023-04-01T02:18:06;20.15;;;14.20;;
13832;SDS011;6987;19.472;-99.276;2023-04-01T02:20:38;29.17;;;19.17;;
13832;SDS011;6987;19.472;-99.276;2023-04-01T02:23:08;18.40;;;12.02;;
13832;SDS011;6987;19.472;-99.276;2023-04-01T02:25:37;7.70;;;7.00;;
13832;SDS011;6987;19.472;-99.276;2023-04-01T02:28:08;12.90;;;7.10;;
13832;SDS011;6987;19.472;-99.276;2023-04-01T02:30:38;9.05;;;7.47;;
13832;SDS011;6987;19.472;-99.276;2023-04-01T02:33:07;8.88;;;6.22;;
13832;SDS011;6987;19.472;-99.276;2023-04-01T02:35:39;9.02;;;8.15;;
13832;SDS011;6987;19.472;-99.276;2023-04-01T02:38:08;11.57;;;7.53;;
13832;SDS011;6987;19.472;-99.276;2023-04-01T02:40:41;13.85;;;7.32;;
13832;SDS011;6987;19.472;-99.276;2023-04-01T02:43:11;10.70;;;9.60;;
13832;SDS011;6987;19.472;-99.276;2023-04-01T02:45:40;13.85;;;8.88;;
13832;SDS011;6987;19.472;-99.276;2023-04-01T02:48:09;11.88;;;7.93;;
13832;SDS011;6987;19.472;-99.276;2023-04-01T02:50:41;7.82;;;7.18;;
13832;SDS011;6987;19.472;-99.276;2023-04-01T02:53:09;13.57;;;7.35;;
13832;SDS011;6987;19.472;-99.276;2023-04-01T02:55:39;21.95;;;9.30;;
13832;SDS011;6987;19.472;-99.276;2023-04-01T02:58:08;13.10;;;7.78;;
13832;SDS011;6987;19.472;-99.276;2023-04-01T03:00:37;9.52;;;7.45;;
13832;SDS011;6987;19.472;-99.276;2023-04-01T03:03:06;9.40;;;8.40;;
13832;SDS011;6987;19.472;-99.276;2023-04-01T03:05:35;8.70;;;7.07;;
13832;SDS011;6987;19.472;-99.276;2023-04-01T03:08:06;9.75;;;6.88;;
13832;SDS011;6987;19.472;-99.276;2023-04-01T03:10:35;7.90;;;7.15;;
13832;SDS011;6987;19.472;-99.276;2023-04-01T03:13:04;11.02;;;7.50;;
13832;SDS011;6987;19.472;-99.276;2023-04-01T03:15:33;10.02;;;7.15;;
13832;SDS011;6987;19.472;-99.276;2023-04-01T03:18:02;9.63;;;6.78;;
13832;SDS011;6987;19.472;-99.276;2023-04-01T03:20:31;14.52;;;6.88;;
13832;SDS011;6987;19.472;-99.276;2023-04-01T03:23:00;7.53;;;6.82;;
13832;SDS011;6987;19.472;-99.276;2023-04-01T03:25:31;10.80;;;6.43;;
13832;SDS011;6987;19.472;-99.276;2023-04-01T03:28:00;6.40;;;5.70;;
13832;SDS011;6987;19.472;-99.276;2023-04-01T03:30:29;6.40;;;5.85;;
13832;SDS011;6987;19.472;-99.276;2023-04-01T03:32:58;9.85;;;6.45;;
13832;SDS011;6987;19.472;-99.276;2023-04-01T03:35:27;7.40;;;6.63;;
13832;SDS011;6987;19.472;-99.276;2023-04-01T03:37:56;7.47;;;6.55;;
13832;SDS011;6987;19.472;-99.276;2023-04-01T03:40:25;8.52;;;6.10;;
13832;SDS011;6987;19.472;-99.276;2023-04-01T03:42:56;8.45;;;6.53;;
13832;SDS011;6987;19.472;-99.276;2023-04-01T03:45:25;7.72;;;5.97;;
13832;SDS011;6987;19.472;-99.276;2023-04-01T03:47:54;7.25;;;6.55;;
13832;SDS011;6987;19.472;-99.276;2023-04-01T03:50:23;7.95;;;6.68;;
13832;SDS011;6987;19.472;-99.276;2023-04-01T03:52:52;12.40;;;6.75;;
13832;SDS011;6987;19.472;-99.276;2023-04-01T03:55:21;7.05;;;6.50;;
13832;SDS011;6987;19.472;-99.276;2023-04-01T03:57:51;8.90;;;6.28;;
13832;SDS011;6987;19.472;-99.276;2023-04-01T04:00:22;12.63;;;6.68;;
13832;SDS011;6987;19.472;-99.276;2023-04-01T04:02:51;15.13;;;6.50;;
13832;SDS011;6987;19.472;-99.276;2023-04-01T04:05:20;8.15;;;6.70;;
13832;SDS011;6987;19.472;-99.276;2023-04-01T04:07:49;8.55;;;6.30;;
13832;SDS011;6987;19.472;-99.276;2023-04-01T04:10:18;6.80;;;6.10;;
13832;SDS011;6987;19.472;-99.276;2023-04-01T04:12:48;11.13;;;6.57;;
13832;SDS011;6987;19.472;-99.276;2023-04-01T04:15:18;8.20;;;5.72;;
13832;SDS011;6987;19.472;-99.276;2023-04-01T04:17:48;7.10;;;6.50;;
13832;SDS011;6987;19.472;-99.276;2023-04-01T04:20:17;6.75;;;5.85;;
13832;SDS011;6987;19.472;-99.276;2023-04-01T04:22:46;6.40;;;5.90;;
13832;SDS011;6987;19.472;-99.276;2023-04-01T04:25:15;9.07;;;5.72;;
13832;SDS011;6987;19.472;-99.276;2023-04-01T04:27:44;11.07;;;7.07;;
13832;SDS011;6987;19.472;-99.276;2023-04-01T04:30:15;7.43;;;6.72;;
13832;SDS011;6987;19.472;-99.276;2023-04-01T04:32:44;6.38;;;5.78;;
13832;SDS011;6987;19.472;-99.276;2023-04-01T04:35:15;8.90;;;6.85;;
13832;SDS011;6987;19.472;-99.276;2023-04-01T04:37:44;8.70;;;6.35;;
13832;SDS011;6987;19.472;-99.276;2023-04-01T04:40:13;6.72;;;5.55;;
13832;SDS011;6987;19.472;-99.276;2023-04-01T04:42:42;13.93;;;6.95;;
13832;SDS011;6987;19.472;-99.276;2023-04-01T04:45:11;7.57;;;6.30;;
13832;SDS011;6987;19.472;-99.276;2023-04-01T04:47:40;9.55;;;6.05;;
13832;SDS011;6987;19.472;-99.276;2023-04-01T04:50:09;7.55;;;6.75;;
13832;SDS011;6987;19.472;-99.276;2023-04-01T04:52:40;9.40;;;6.80;;
13832;SDS011;6987;19.472;-99.276;2023-04-01T04:55:10;8.93;;;6.45;;
13832;SDS011;6987;19.472;-99.276;2023-04-01T04:57:39;7.70;;;6.75;;
13832;SDS011;6987;19.472;-99.276;2023-04-01T05:00:08;7.20;;;6.50;;
13832;SDS011;6987;19.472;-99.276;2023-04-01T05:02:37;7.65;;;6.82;;
13832;SDS011;6987;19.472;-99.276;2023-04-01T05:05:06;6.97;;;6.38;;
13832;SDS011;6987;19.472;-99.276;2023-04-01T05:07:36;7.60;;;6.30;;
13832;SDS011;6987;19.472;-99.276;2023-04-01T05:10:07;7.10;;;6.43;;
13832;SDS011;6987;19.472;-99.276;2023-04-01T05:12:36;8.52;;;6.10;;
13832;SDS011;6987;19.472;-99.276;2023-04-01T05:15:05;9.38;;;6.25;;
13832;SDS011;6987;19.472;-99.276;2023-04-01T05:17:34;7.75;;;6.95;;
13832;SDS011;6987;19.472;-99.276;2023-04-01T05:20:03;6.82;;;6.13;;
13832;SDS011;6987;19.472;-99.276;2023-04-01T05:22:32;7.00;;;6.30;;
13832;SDS011;6987;19.472;-99.276;2023-04-01T05:25:02;7.20;;;6.25;;
13832;SDS011;6987;19.472;-99.276;2023-04-01T05:27:32;6.90;;;6.22;;
13832;SDS011;6987;19.472;-99.276;2023-04-01T05:30:02;7.13;;;6.43;;
13832;SDS011;6987;19.472;-99.276;2023-04-01T05:32:31;7.28;;;6.65;;
13832;SDS011;6987;19.472;-99.276;2023-04-01T05:35:00;8.80;;;6.28;;
13832;SDS011;6987;19.472;-99.276;2023-04-01T05:37:29;6.95;;;6.35;;
13832;SDS011;6987;19.472;-99.276;2023-04-01T05:39:57;7.82;;;7.15;;
13832;SDS011;6987;19.472;-99.276;2023-04-01T05:42:27;11.45;;;7.43;;
13832;SDS011;6987;19.472;-99.276;2023-04-01T05:44:58;7.20;;;6.50;;
13832;SDS011;6987;19.472;-99.276;2023-04-01T05:47:27;7.28;;;6.57;;
13832;SDS011;6987;19.472;-99.276;2023-04-01T05:49:56;9.30;;;7.95;;
13832;SDS011;6987;19.472;-99.276;2023-04-01T05:52:25;7.03;;;6.30;;
13832;SDS011;6987;19.472;-99.276;2023-04-01T05:54:55;12.02;;;6.75;;
13832;SDS011;6987;19.472;-99.276;2023-04-01T05:57:24;11.15;;;6.82;;
13832;SDS011;6987;19.472;-99.276;2023-04-01T05:59:54;7.38;;;6.70;;
13832;SDS011;6987;19.472;-99.276;2023-04-01T06:02:25;10.13;;;7.03;;
13832;SDS011;6987;19.472;-99.276;2023-04-01T06:04:54;8.65;;;7.43;;
13832;SDS011;6987;19.472;-99.276;2023-04-01T06:07:28;7.70;;;6.93;;
13832;SDS011;6987;19.472;-99.276;2023-04-01T06:09:57;8.20;;;7.22;;
13832;SDS011;6987;19.472;-99.276;2023-04-01T06:12:33;8.90;;;7.85;;
13832;SDS011;6987;19.472;-99.276;2023-04-01T06:15:13;7.35;;;6.32;;
13832;SDS011;6987;19.472;-99.276;2023-04-01T06:17:51;7.45;;;6.75;;
13832;SDS011;6987;19.472;-99.276;2023-04-01T06:20:23;7.78;;;7.18;;
13832;SDS011;6987;19.472;-99.276;2023-04-01T06:23:02;9.15;;;7.40;;
13832;SDS011;6987;19.472;-99.276;2023-04-01T06:25:44;6.93;;;6.32;;
13832;SDS011;6987;19.472;-99.276;2023-04-01T06:28:22;8.60;;;7.28;;
13832;SDS011;6987;19.472;-99.276;2023-04-01T06:30:56;10.23;;;7.22;;
13832;SDS011;6987;19.472;-99.276;2023-04-01T06:33:41;8.30;;;6.88;;
13832;SDS011;6987;19.472;-99.276;2023-04-01T06:36:20;7.68;;;6.60;;
13832;SDS011;6987;19.472;-99.276;2023-04-01T06:38:54;7.80;;;7.07;;
13832;SDS011;6987;19.472;-99.276;2023-04-01T06:41:33;9.85;;;6.55;;
13832;SDS011;6987;19.472;-99.276;2023-04-01T06:44:11;8.27;;;7.57;;
13832;SDS011;6987;19.472;-99.276;2023-04-01T06:46:44;14.80;;;7.40;;
13832;SDS011;6987;19.472;-99.276;2023-04-01T06:49:24;8.02;;;6.72;;
13832;SDS011;6987;19.472;-99.276;2023-04-01T06:51:58;7.70;;;6.97;;
13832;SDS011;6987;19.472;-99.276;2023-04-01T06:54:30;10.35;;;6.68;;
13832;SDS011;6987;19.472;-99.276;2023-04-01T06:57:02;11.45;;;7.55;;
13832;SDS011;6987;19.472;-99.276;2023-04-01T06:59:32;8.63;;;7.75;;
13832;SDS011;6987;19.472;-99.276;2023-04-01T07:02:04;7.65;;;6.63;;
13832;SDS011;6987;19.472;-99.276;2023-04-01T07:04:42;7.50;;;6.60;;
13832;SDS011;6987;19.472;-99.276;2023-04-01T07:07:12;9.57;;;7.43;;
13832;SDS011;6987;19.472;-99.276;2023-04-01T07:09:49;8.13;;;7.35;;
13832;SDS011;6987;19.472;-99.276;2023-04-01T07:12:21;8.35;;;7.35;;
13832;SDS011;6987;19.472;-99.276;2023-04-01T07:14:50;9.57;;;7.55;;
13832;SDS011;6987;19.472;-99.276;2023-04-01T07:17:22;7.75;;;7.13;;
13832;SDS011;6987;19.472;-99.276;2023-04-01T07:19:56;7.68;;;6.30;;
13832;SDS011;6987;19.472;-99.276;2023-04-01T07:22:26;8.35;;;7.13;;
13832;SDS011;6987;19.472;-99.276;2023-04-01T07:24:59;8.02;;;6.68;;
13832;SDS011;6987;19.472;-99.276;2023-04-01T07:27:30;9.30;;;6.50;;
13832;SDS011;6987;19.472;-99.276;2023-04-01T07:29:59;8.18;;;6.88;;
13832;SDS011;6987;19.472;-99.276;2023-04-01T07:32:32;8.60;;;6.50;;
13832;SDS011;6987;19.472;-99.276;2023-04-01T07:35:10;7.78;;;6.53;;
13832;SDS011;6987;19.472;-99.276;2023-04-01T07:37:44;7.50;;;6.75;;
13832;SDS011;6987;19.472;-99.276;2023-04-01T07:40:18;12.57;;;7.28;;
13832;SDS011;6987;19.472;-99.276;2023-04-01T07:42:59;9.73;;;6.75;;
13832;SDS011;6987;19.472;-99.276;2023-04-01T07:45:31;7.65;;;6.93;;
13832;SDS011;6987;19.472;-99.276;2023-04-01T07:48:08;7.93;;;6.30;;
13832;SDS011;6987;19.472;-99.276;2023-04-01T07:50:42;9.68;;;6.90;;
13832;SDS011;6987;19.472;-99.276;2023-04-01T07:53:14;7.90;;;6.55;;
13832;SDS011;6987;19.472;-99.276;2023-04-01T07:55:46;9.30;;;6.97;;
13832;SDS011;6987;19.472;-99.276;2023-04-01T07:58:19;7.90;;;7.30;;
13832;SDS011;6987;19.472;-99.276;2023-04-01T08:00:53;6.70;;;6.20;;
13832;SDS011;6987;19.472;-99.276;2023-04-01T08:03:31;7.25;;;6.63;;
13832;SDS011;6987;19.472;-99.276;2023-04-01T08:06:05;11.70;;;7.95;;
13832;SDS011;6987;19.472;-99.276;2023-04-01T08:08:38;8.00;;;6.65;;
13832;SDS011;6987;19.472;-99.276;2023-04-01T08:11:12;11.35;;;6.78;;
13832;SDS011;6987;19.472;-99.276;2023-04-01T08:13:44;7.95;;;7.07;;
13832;SDS011;6987;19.472;-99.276;2023-04-01T08:16:15;8.15;;;7.15;;
13832;SDS011;6987;19.472;-99.276;2023-04-01T08:18:48;9.10;;;6.53;;
13832;SDS011;6987;19.472;-99.276;2023-04-01T08:21:21;7.40;;;6.80;;
13832;SDS011;6987;19.472;-99.276;2023-04-01T08:23:52;10.90;;;6.82;;
13832;SDS011;6987;19.472;-99.276;2023-04-01T08:26:25;8.65;;;6.43;;
13832;SDS011;6987;19.472;-99.276;2023-04-01T08:28:58;8.82;;;6.53;;
13832;SDS011;6987;19.472;-99.276;2023-04-01T08:31:29;8.55;;;6.95;;
13832;SDS011;6987;19.472;-99.276;2023-04-01T08:34:01;9.80;;;7.45;;
13832;SDS011;6987;19.472;-99.276;2023-04-01T08:36:35;8.23;;;7.43;;
13832;SDS011;6987;19.472;-99.276;2023-04-01T08:39:06;7.18;;;6.40;;
13832;SDS011;6987;19.472;-99.276;2023-04-01T08:44:41;7.57;;;6.85;;
13832;SDS011;6987;19.472;-99.276;2023-04-01T08:50:06;10.05;;;7.70;;
13832;SDS011;6987;19.472;-99.276;2023-04-01T08:52:47;7.47;;;6.82;;
13832;SDS011;6987;19.472;-99.276;2023-04-01T08:55:21;6.65;;;6.07;;
13832;SDS011;6987;19.472;-99.276;2023-04-01T08:57:54;9.15;;;7.43;;
13832;SDS011;6987;19.472;-99.276;2023-04-01T09:00:27;7.65;;;6.93;;
13832;SDS011;6987;19.472;-99.276;2023-04-01T09:05:37;7.45;;;6.78;;
13832;SDS011;6987;19.472;-99.276;2023-04-01T09:08:11;9.60;;;7.15;;
13832;SDS011;6987;19.472;-99.276;2023-04-01T09:13:42;9.15;;;7.35;;
13832;SDS011;6987;19.472;-99.276;2023-04-01T09:16:24;8.90;;;8.00;;
13832;SDS011;6987;19.472;-99.276;2023-04-01T09:24:35;10.00;;;6.90;;
13832;SDS011;6987;19.472;-99.276;2023-04-01T09:27:10;7.25;;;6.55;;
13832;SDS011;6987;19.472;-99.276;2023-04-01T09:32:36;7.80;;;7.10;;
13832;SDS011;6987;19.472;-99.276;2023-04-01T09:35:17;7.85;;;7.15;;
13832;SDS011;6987;19.472;-99.276;2023-04-01T09:37:52;7.45;;;6.65;;
13832;SDS011;6987;19.472;-99.276;2023-04-01T09:40:25;8.00;;;7.07;;
13832;SDS011;6987;19.472;-99.276;2023-04-01T09:43:06;7.93;;;7.15;;
13832;SDS011;6987;19.472;-99.276;2023-04-01T09:45:44;7.05;;;6.53;;
13832;SDS011;6987;19.472;-99.276;2023-04-01T09:48:21;8.65;;;7.80;;
13832;SDS011;6987;19.472;-99.276;2023-04-01T09:50:56;13.38;;;7.90;;
13832;SDS011;6987;19.472;-99.276;2023-04-01T09:53:37;8.65;;;7.40;;
13832;SDS011;6987;19.472;-99.276;2023-04-01T14:34:42;20.65;;;13.57;;
13832;SDS011;6987;19.472;-99.276;2023-04-01T14:37:19;15.75;;;13.48;;
13832;SDS011;6987;19.472;-99.276;2023-04-01T14:40:04;14.38;;;12.18;;
13832;SDS011;6987;19.472;-99.276;2023-04-01T14:42:41;18.80;;;11.70;;
13832;SDS011;6987;19.472;-99.276;2023-04-01T14:47:58;18.75;;;10.70;;
13832;SDS011;6987;19.472;-99.276;2023-04-01T14:50:39;15.38;;;11.52;;
13832;SDS011;6987;19.472;-99.276;2023-04-01T14:53:11;11.43;;;10.10;;
13832;SDS011;6987;19.472;-99.276;2023-04-01T14:55:46;13.13;;;11.80;;
13832;SDS011;6987;19.472;-99.276;2023-04-01T14:58:16;13.10;;;11.80;;
13832;SDS011;6987;19.472;-99.276;2023-04-01T15:00:48;14.52;;;9.60;;
13832;SDS011;6987;19.472;-99.276;2023-04-01T15:03:22;14.23;;;11.35;;
13832;SDS011;6987;19.472;-99.276;2023-04-01T15:05:54;13.32;;;11.25;;
13832;SDS011;6987;19.472;-99.276;2023-04-01T15:08:25;11.15;;;9.32;;
13832;SDS011;6987;19.472;-99.276;2023-04-01T15:11:10;15.07;;;11.05;;
13832;SDS011;6987;19.472;-99.276;2023-04-01T15:13:45;15.57;;;10.82;;
13832;SDS011;6987;19.472;-99.276;2023-04-01T15:16:18;9.68;;;8.73;;
13832;SDS011;6987;19.472;-99.276;2023-04-01T15:18:51;14.43;;;9.32;;
13832;SDS011;6987;19.472;-99.276;2023-04-01T15:21:30;12.52;;;10.57;;
13832;SDS011;6987;19.472;-99.276;2023-04-01T15:24:04;19.08;;;10.27;;
13832;SDS011;6987;19.472;-99.276;2023-04-01T15:29:28;12.50;;;11.20;;
13832;SDS011;6987;19.472;-99.276;2023-04-01T15:31:59;15.43;;;11.55;;
13832;SDS011;6987;19.472;-99.276;2023-04-01T15:34:33;14.45;;;9.55;;
13832;SDS011;6987;19.472;-99.276;2023-04-01T15:37:07;12.18;;;8.50;;
13832;SDS011;6987;19.472;-99.276;2023-04-01T15:39:40;9.02;;;8.23;;
13832;SDS011;6987;19.472;-99.276;2023-04-01T15:42:16;12.38;;;9.15;;
13832;SDS011;6987;19.472;-99.276;2023-04-01T15:44:51;10.10;;;9.10;;
13832;SDS011;6987;19.472;-99.276;2023-04-01T15:47:29;13.85;;;9.57;;
13832;SDS011;6987;19.472;-99.276;2023-04-01T15:50:12;10.45;;;8.93;;
13832;SDS011;6987;19.472;-99.276;2023-04-01T15:52:49;16.60;;;8.85;;
13832;SDS011;6987;19.472;-99.276;2023-04-01T15:55:21;8.45;;;7.80;;
13832;SDS011;6987;19.472;-99.276;2023-04-01T15:58:01;11.27;;;9.43;;
13832;SDS011;6987;19.472;-99.276;2023-04-01T16:00:32;12.55;;;8.50;;
13832;SDS011;6987;19.472;-99.276;2023-04-01T16:03:15;10.30;;;8.02;;
13832;SDS011;6987;19.472;-99.276;2023-04-01T16:05:53;15.23;;;8.93;;
13832;SDS011;6987;19.472;-99.276;2023-04-01T16:08:33;10.60;;;8.35;;
13832;SDS011;6987;19.472;-99.276;2023-04-01T16:11:07;14.15;;;8.73;;
13832;SDS011;6987;19.472;-99.276;2023-04-01T16:13:44;11.32;;;8.60;;
13832;SDS011;6987;19.472;-99.276;2023-04-01T16:16:19;11.30;;;8.05;;
13832;SDS011;6987;19.472;-99.276;2023-04-01T16:21:37;10.13;;;8.73;;
13832;SDS011;6987;19.472;-99.276;2023-04-01T16:24:12;9.57;;;8.65;;
13832;SDS011;6987;19.472;-99.276;2023-04-01T16:26:44;10.82;;;8.18;;
13832;SDS011;6987;19.472;-99.276;2023-04-01T16:29:17;10.20;;;8.40;;
13832;SDS011;6987;19.472;-99.276;2023-04-01T16:31:49;10.90;;;9.18;;
13832;SDS011;6987;19.472;-99.276;2023-04-01T16:34:22;9.43;;;8.25;;
13832;SDS011;6987;19.472;-99.276;2023-04-01T16:36:54;24.27;;;8.93;;
13832;SDS011;6987;19.472;-99.276;2023-04-01T16:39:33;16.27;;;9.07;;
13832;SDS011;6987;19.472;-99.276;2023-04-01T16:42:13;15.73;;;8.52;;
13832;SDS011;6987;19.472;-99.276;2023-04-01T16:44:47;9.25;;;8.35;;
13832;SDS011;6987;19.472;-99.276;2023-04-01T16:47:19;8.93;;;8.02;;
13832;SDS011;6987;19.472;-99.276;2023-04-01T16:49:51;15.68;;;8.70;;
13832;SDS011;6987;19.472;-99.276;2023-04-01T16:52:32;9.48;;;7.50;;
13832;SDS011;6987;19.472;-99.276;2023-04-01T16:55:08;8.45;;;7.65;;
13832;SDS011;6987;19.472;-99.276;2023-04-01T16:57:43;9.05;;;8.25;;
13832;SDS011;6987;19.472;-99.276;2023-04-01T17:00:17;8.88;;;8.02;;
13832;SDS011;6987;19.472;-99.276;2023-04-01T17:02:49;10.75;;;9.15;;
13832;SDS011;6987;19.472;-99.276;2023-04-01T17:05:21;13.75;;;8.57;;
13832;SDS011;6987;19.472;-99.276;2023-04-01T17:08:06;10.88;;;8.68;;
13832;SDS011;6987;19.472;-99.276;2023-04-01T17:10:42;12.27;;;9.38;;
13832;SDS011;6987;19.472;-99.276;2023-04-01T17:13:17;12.43;;;8.55;;
13832;SDS011;6987;19.472;-99.276;2023-04-01T17:15:53;10.05;;;8.23;;
13832;SDS011;6987;19.472;-99.276;2023-04-01T17:18:27;10.10;;;8.45;;
13832;SDS011;6987;19.472;-99.276;2023-04-01T17:21:03;8.48;;;7.60;;
13832;SDS011;6987;19.472;-99.276;2023-04-01T17:23:34;9.57;;;8.55;;
13832;SDS011;6987;19.472;-99.276;2023-04-01T17:26:12;11.55;;;9.48;;
13832;SDS011;6987;19.472;-99.276;2023-04-01T17:28:46;10.00;;;9.00;;
13832;SDS011;6987;19.472;-99.276;2023-04-01T17:31:21;15.63;;;10.10;;
13832;SDS011;6987;19.472;-99.276;2023-04-01T17:33:58;11.80;;;9.85;;
13832;SDS011;6987;19.472;-99.276;2023-04-01T17:36:35;13.15;;;9.10;;
13832;SDS011;6987;19.472;-99.276;2023-04-01T17:39:08;10.00;;;9.10;;
13832;SDS011;6987;19.472;-99.276;2023-04-01T17:41:45;15.40;;;10.07;;
13832;SDS011;6987;19.472;-99.276;2023-04-01T17:44:17;10.07;;;9.18;;
13832;SDS011;6987;19.472;-99.276;2023-04-01T17:47:01;10.07;;;9.07;;
13832;SDS011;6987;19.472;-99.276;2023-04-01T17:49:35;20.73;;;10.65;;
13832;SDS011;6987;19.472;-99.276;2023-04-01T17:52:07;12.82;;;11.45;;
13832;SDS011;6987;19.472;-99.276;2023-04-01T17:54:39;14.02;;;11.55;;
13832;SDS011;6987;19.472;-99.276;2023-04-01T17:57:21;14.43;;;10.40;;
13832;SDS011;6987;19.472;-99.276;2023-04-01T17:59:55;15.85;;;10.90;;
13832;SDS011;6987;19.472;-99.276;2023-04-01T18:02:32;13.88;;;9.27;;
13832;SDS011;6987;19.472;-99.276;2023-04-01T18:07:51;12.63;;;9.60;;
13832;SDS011;6987;19.472;-99.276;2023-04-01T18:10:25;9.00;;;8.05;;
13832;SDS011;6987;19.472;-99.276;2023-04-01T18:15:40;8.73;;;6.88;;
13832;SDS011;6987;19.472;-99.276;2023-04-01T18:18:17;10.68;;;9.68;;
13832;SDS011;6987;19.472;-99.276;2023-04-01T18:20:51;11.25;;;9.77;;
13832;SDS011;6987;19.472;-99.276;2023-04-01T18:23:26;10.38;;;9.38;;
13832;SDS011;6987;19.472;-99.276;2023-04-01T18:26:02;10.30;;;8.68;;
13832;SDS011;6987;19.472;-99.276;2023-04-01T18:28:33;9.23;;;8.43;;
13832;SDS011;6987;19.472;-99.276;2023-04-01T18:31:09;10.63;;;9.52;;
13832;SDS011;6987;19.472;-99.276;2023-04-01T18:33:49;10.13;;;9.13;;
13832;SDS011;6987;19.472;-99.276;2023-04-01T18:36:21;10.45;;;8.52;;
13832;SDS011;6987;19.472;-99.276;2023-04-01T18:38:52;11.95;;;9.25;;
13832;SDS011;6987;19.472;-99.276;2023-04-01T18:41:26;9.82;;;8.77;;
13832;SDS011;6987;19.472;-99.276;2023-04-01T18:44:03;10.23;;;8.85;;
13832;SDS011;6987;19.472;-99.276;2023-04-01T18:46:36;11.00;;;9.15;;
13832;SDS011;6987;19.472;-99.276;2023-04-01T18:49:11;11.32;;;10.07;;
13832;SDS011;6987;19.472;-99.276;2023-04-01T18:51:44;11.40;;;10.13;;
13832;SDS011;6987;19.472;-99.276;2023-04-01T18:54:17;11.40;;;9.63;;
13832;SDS011;6987;19.472;-99.276;2023-04-01T18:56:49;10.35;;;9.45;;
13832;SDS011;6987;19.472;-99.276;2023-04-01T18:59:19;12.20;;;10.57;;
13832;SDS011;6987;19.472;-99.276;2023-04-01T19:01:59;16.52;;;10.57;;
13832;SDS011;6987;19.472;-99.276;2023-04-01T19:04:30;15.38;;;10.50;;
13832;SDS011;6987;19.472;-99.276;2023-04-01T19:07:00;14.90;;;10.90;;
13832;SDS011;6987;19.472;-99.276;2023-04-01T19:09:31;12.30;;;11.00;;
13832;SDS011;6987;19.472;-99.276;2023-04-01T19:12:07;12.18;;;10.98;;
13832;SDS011;6987;19.472;-99.276;2023-04-01T19:14:52;11.32;;;9.77;;
13832;SDS011;6987;19.472;-99.276;2023-04-01T19:17:25;12.05;;;10.70;;
13832;SDS011;6987;19.472;-99.276;2023-04-01T19:19:59;13.80;;;11.32;;
13832;SDS011;6987;19.472;-99.276;2023-04-01T19:22:35;11.88;;;10.50;;
13832;SDS011;6987;19.472;-99.276;2023-04-01T19:25:17;18.33;;;11.32;;
13832;SDS011;6987;19.472;-99.276;2023-04-01T19:27:48;12.55;;;11.23;;
13832;SDS011;6987;19.472;-99.276;2023-04-01T19:30:21;16.77;;;11.48;;
13832;SDS011;6987;19.472;-99.276;2023-04-01T19:32:56;16.08;;;12.57;;
13832;SDS011;6987;19.472;-99.276;2023-04-01T19:35:29;14.95;;;11.88;;
13832;SDS011;6987;19.472;-99.276;2023-04-01T19:38:02;15.98;;;12.77;;
13832;SDS011;6987;19.472;-99.276;2023-04-01T19:40:36;16.33;;;14.23;;
13832;SDS011;6987;19.472;-99.276;2023-04-01T19:43:08;16.90;;;15.15;;
13832;SDS011;6987;19.472;-99.276;2023-04-01T19:45:40;21.35;;;16.33;;
13832;SDS011;6987;19.472;-99.276;2023-04-01T19:48:17;21.88;;;15.48;;
13832;SDS011;6987;19.472;-99.276;2023-04-01T19:50:55;18.83;;;13.90;;
13832;SDS011;6987;19.472;-99.276;2023-04-01T19:53:28;16.63;;;12.95;;
13832;SDS011;6987;19.472;-99.276;2023-04-01T19:56:00;15.75;;;13.00;;
13832;SDS011;6987;19.472;-99.276;2023-04-01T19:58:31;15.20;;;13.13;;
13832;SDS011;6987;19.472;-99.276;2023-04-01T20:01:01;17.85;;;12.68;;
13832;SDS011;6987;19.472;-99.276;2023-04-01T20:03:38;14.88;;;13.00;;
13832;SDS011;6987;19.472;-99.276;2023-04-01T20:06:11;13.52;;;11.98;;
13832;SDS011;6987;19.472;-99.276;2023-04-01T20:08:45;15.60;;;13.05;;
13832;SDS011;6987;19.472;-99.276;2023-04-01T20:11:20;17.65;;;13.35;;